Time;durP1;ratioP1;P1;durP2;ratioP2;P2;SDS_P1;SDS_P2;PMS_P1;PMS_P2;Temp;Humidity;BMP_temperature;BMP_pressure;BME280_temperature;BME280_humidity;BME280_pressure;Samples;Min_cycle;Max_cycle;Signal;HPM_P1;HPM_P2
2021/05/21 00:01:31;;;;;;;5.60;4.95;;;18.90;47.00;;;;;;6198373;23;20146;-81
2021/05/21 00:03:59;;;;;;;6.20;5.00;;;18.90;47.00;;;;;;6123383;23;20138;-82
2021/05/21 00:06:33;;;;;;;6.65;5.10;;;18.90;47.00;;;;;;6123133;23;20143;-81
2021/05/21 00:08:59;;;;;;;5.47;4.88;;;18.90;47.00;;;;;;6197324;23;20135;-83
2021/05/21 00:11:26;;;;;;;6.18;5.18;;;18.90;47.00;;;;;;6159434;23;20241;-81
2021/05/21 00:14:00;;;;;;;5.78;5.10;;;18.90;47.00;;;;;;6122127;23;20143;-80
2021/05/21 00:16:26;;;;;;;5.22;4.60;;;18.90;47.00;;;;;;6146560;23;20138;-82
2021/05/21 00:18:51;;;;;;;6.30;5.10;;;18.90;47.00;;;;;;6147083;23;20195;-81
2021/05/21 00:21:17;;;;;;;5.75;5.15;;;18.90;47.10;;;;;;6122022;23;20143;-83
2021/05/21 00:23:44;;;;;;;5.40;4.90;;;18.90;47.10;;;;;;6171917;23;20127;-80
2021/05/21 00:26:10;;;;;;;5.57;5.07;;;18.90;47.10;;;;;;6122166;23;20149;-82
2021/05/21 00:28:37;;;;;;;5.70;4.90;;;18.90;47.10;;;;;;6146477;23;20567;-81
2021/05/21 00:31:02;;;;;;;6.45;4.72;;;18.90;47.10;;;;;;6170508;23;20178;-83
2021/05/21 00:33:31;;;;;;;6.78;5.00;;;18.90;47.10;;;;;;6146531;23;20151;-81
2021/05/21 00:35:57;;;;;;;5.65;4.88;;;18.90;47.10;;;;;;6197844;23;20636;-80
2021/05/21 00:38:22;;;;;;;6.47;4.95;;;18.90;47.10;;;;;;6146487;23;20139;-81
2021/05/21 00:40:48;;;;;;;5.75;4.95;;;18.90;47.10;;;;;;6170387;23;20191;-83
2021/05/21 00:43:18;;;;;;;5.50;4.90;;;18.90;47.10;;;;;;6147147;23;20571;-81
2021/05/21 00:45:43;;;;;;;6.18;5.35;;;18.90;47.10;;;;;;6170977;23;20206;-82
2021/05/21 00:48:10;;;;;;;6.15;5.18;;;18.90;47.10;;;;;;6171475;23;20131;-80
2021/05/21 00:50:38;;;;;;;5.82;5.13;;;18.90;47.10;;;;;;6145939;23;20537;-81
2021/05/21 00:53:12;;;;;;;5.78;5.18;;;18.90;47.10;;;;;;6169791;23;20563;-82
2021/05/21 00:55:38;;;;;;;5.53;4.93;;;18.90;47.20;;;;;;6171526;23;20138;-82
2021/05/21 00:58:06;;;;;;;5.70;5.10;;;18.80;47.10;;;;;;6121858;23;20202;-81
2021/05/21 01:00:40;;;;;;;5.22;4.72;;;18.90;47.10;;;;;;6197101;23;20583;-81
2021/05/21 01:03:07;;;;;;;5.45;4.95;;;18.90;47.10;;;;;;6145926;23;20161;-81
2021/05/21 01:05:33;;;;;;;6.15;5.20;;;18.90;47.10;;;;;;6196933;23;20139;-80
2021/05/21 01:07:59;;;;;;;5.80;5.18;;;18.80;47.10;;;;;;6121123;23;20135;-80
2021/05/21 01:10:31;;;;;;;5.47;4.93;;;18.80;47.10;;;;;;6170760;23;20173;-79
2021/05/21 01:12:57;;;;;;;5.28;4.78;;;18.80;47.20;;;;;;6170735;23;20135;-81
2021/05/21 01:15:24;;;;;;;7.50;5.50;;;18.80;47.20;;;;;;6145907;23;20162;-80
2021/05/21 01:17:50;;;;;;;6.07;4.78;;;18.80;47.20;;;;;;6170685;23;20138;-80
2021/05/21 01:20:15;;;;;;;5.35;4.80;;;18.80;47.20;;;;;;6145163;23;20131;-82
2021/05/21 01:22:42;;;;;;;5.97;5.38;;;18.80;47.20;;;;;;6122150;23;20143;-84
2021/05/21 01:25:08;;;;;;;6.38;5.20;;;18.90;47.20;;;;;;6121155;23;20161;-80
2021/05/21 01:27:36;;;;;;;5.32;4.82;;;18.90;47.20;;;;;;6197152;23;20547;-81
2021/05/21 01:30:22;;;;;;;5.35;4.85;;;18.80;47.20;;;;;;6146598;23;20175;-81
2021/05/21 01:32:49;;;;;;;6.00;5.00;;;18.80;47.30;;;;;;6167578;23;20139;-82
2021/05/21 01:35:16;;;;;;;5.68;5.10;;;18.80;47.30;;;;;;6170210;23;20131;-83
2021/05/21 01:37:52;;;;;;;6.78;5.13;;;18.80;47.20;;;;;;6196836;23;20131;-81
2021/05/21 01:40:17;;;;;;;5.70;5.07;;;18.90;47.30;;;;;;6195840;23;20218;-80
2021/05/21 01:42:45;;;;;;;5.82;5.18;;;18.80;47.30;;;;;;6170451;23;20127;-82
2021/05/21 01:45:13;;;;;;;5.30;4.80;;;18.80;47.30;;;;;;6195726;23;20198;-81
2021/05/21 01:47:40;;;;;;;5.47;4.97;;;18.80;47.30;;;;;;6169803;23;20138;-83
2021/05/21 01:50:12;;;;;;;5.80;5.20;;;18.80;47.40;;;;;;6170061;23;20166;-83
2021/05/21 01:52:47;;;;;;;5.78;5.18;;;18.80;47.40;;;;;;6145903;23;20534;-81
2021/05/21 01:55:14;;;;;;;7.20;5.68;;;18.80;47.30;;;;;;6196447;23;20130;-81
2021/05/21 01:57:42;;;;;;;5.97;5.25;;;18.80;47.40;;;;;;6146515;23;20158;-80
2021/05/21 02:00:12;;;;;;;5.63;5.03;;;18.80;47.40;;;;;;6169663;23;20142;-82
2021/05/21 02:02:38;;;;;;;6.07;4.75;;;18.80;47.40;;;;;;6170340;23;20158;-81
2021/05/21 02:05:05;;;;;;;5.80;5.03;;;18.80;47.40;;;;;;6144664;23;20538;-81
2021/05/21 02:07:31;;;;;;;5.97;5.10;;;18.80;47.40;;;;;;6145306;23;20150;-83
2021/05/21 02:10:07;;;;;;;5.78;5.18;;;18.80;47.40;;;;;;6169193;23;20167;-79
2021/05/21 02:12:36;;;;;;;6.13;5.10;;;18.80;47.40;;;;;;6169957;23;20151;-82
2021/05/21 02:15:08;;;;;;;5.65;5.15;;;18.80;47.50;;;;;;6169839;23;20138;-81
2021/05/21 02:17:43;;;;;;;5.68;5.03;;;18.80;47.40;;;;;;6169761;23;20131;-80
2021/05/21 02:20:13;;;;;;;6.10;5.10;;;18.80;47.40;;;;;;6169532;23;20138;-80
2021/05/21 02:22:41;;;;;;;5.80;5.10;;;18.80;47.50;;;;;;6145344;23;20174;-81
2021/05/21 02:25:08;;;;;;;6.50;5.60;;;18.70;47.50;;;;;;6196307;23;20195;-82
2021/05/21 02:27:35;;;;;;;5.88;5.20;;;18.70;47.60;;;;;;6145643;23;20151;-82
2021/05/21 02:30:10;;;;;;;6.28;5.30;;;18.80;47.60;;;;;;6145714;23;20179;-82
2021/05/21 02:32:41;;;;;;;5.40;4.82;;;18.70;47.50;;;;;;6195596;23;20217;-82
2021/05/21 02:35:10;;;;;;;6.75;5.43;;;18.80;47.60;;;;;;6169836;23;20135;-80
2021/05/21 02:37:36;;;;;;;5.68;4.97;;;18.80;47.60;;;;;;6170500;23;20134;-81
2021/05/21 02:40:05;;;;;;;5.15;4.65;;;18.70;47.70;;;;;;6169524;23;20154;-80
2021/05/21 02:42:37;;;;;;;6.00;5.40;;;18.70;47.60;;;;;;6195986;23;20214;-82
2021/05/21 02:45:06;;;;;;;5.25;4.75;;;18.70;47.60;;;;;;6146197;23;20170;-81
2021/05/21 02:47:41;;;;;;;5.88;5.28;;;18.70;47.70;;;;;;6147489;23;20459;-82
2021/05/21 02:50:09;;;;;;;5.43;4.93;;;18.70;47.60;;;;;;6171881;23;20185;-81
2021/05/21 02:52:35;;;;;;;6.10;5.50;;;18.70;47.60;;;;;;6147262;23;20143;-81
2021/05/21 02:55:02;;;;;;;5.63;4.85;;;18.70;47.70;;;;;;6199399;23;20214;-80
2021/05/21 02:57:30;;;;;;;6.47;5.30;;;18.70;47.60;;;;;;6172700;23;20131;-82
2021/05/21 02:59:57;;;;;;;5.53;5.00;;;18.70;47.70;;;;;;6172566;23;20151;-81
2021/05/21 03:02:23;;;;;;;6.78;5.30;;;18.70;47.70;;;;;;6171728;23;20127;-83
2021/05/21 03:04:53;;;;;;;5.97;5.28;;;18.70;47.60;;;;;;6147037;23;20161;-80
2021/05/21 03:07:20;;;;;;;6.50;5.00;;;18.70;47.70;;;;;;6171591;23;20158;-82
2021/05/21 03:09:46;;;;;;;5.85;4.80;;;18.70;47.70;;;;;;6146404;23;20179;-80
2021/05/21 03:12:15;;;;;;;5.53;4.80;;;18.70;47.70;;;;;;6172074;23;20131;-83
2021/05/21 03:14:42;;;;;;;5.70;4.90;;;18.70;47.80;;;;;;6172668;23;20195;-83
2021/05/21 03:17:09;;;;;;;6.13;5.30;;;18.70;47.80;;;;;;6197722;23;20633;-81
2021/05/21 03:19:38;;;;;;;5.70;5.10;;;18.70;47.80;;;;;;6171934;23;20571;-80
2021/05/21 03:22:03;;;;;;;5.60;5.00;;;18.70;47.70;;;;;;6123875;23;20227;-80
2021/05/21 03:24:38;;;;;;;5.78;5.18;;;18.70;47.80;;;;;;6171403;23;20131;-81
2021/05/21 03:27:05;;;;;;;5.80;4.97;;;18.70;47.70;;;;;;6198162;23;20149;-80
2021/05/21 03:29:40;;;;;;;7.35;4.90;;;18.70;47.80;;;;;;6146637;23;20194;-80
2021/05/21 03:32:06;;;;;;;5.93;5.28;;;18.70;47.80;;;;;;6198604;23;20504;-81
2021/05/21 03:34:32;;;;;;;5.97;5.22;;;18.70;47.80;;;;;;6172355;23;20563;-81
2021/05/21 03:36:58;;;;;;;5.85;5.20;;;18.70;47.80;;;;;;6147419;23;20158;-82
2021/05/21 03:39:24;;;;;;;5.47;4.97;;;18.70;47.90;;;;;;6146404;23;20170;-82
2021/05/21 03:41:59;;;;;;;6.10;4.93;;;18.70;47.80;;;;;;6122483;23;20206;-81
2021/05/21 03:44:25;;;;;;;5.85;5.00;;;18.70;47.80;;;;;;6147098;23;20196;-81
2021/05/21 03:47:02;;;;;;;5.80;5.20;;;18.70;47.80;;;;;;6197741;23;20131;-83
2021/05/21 03:49:37;;;;;;;5.75;5.15;;;18.70;47.90;;;;;;6171249;23;20181;-80
2021/05/21 03:52:05;;;;;;;5.30;4.80;;;18.70;47.80;;;;;;6171213;23;20162;-81
2021/05/21 03:54:31;;;;;;;6.53;5.15;;;18.70;47.90;;;;;;6171781;23;20146;-81
2021/05/21 03:56:58;;;;;;;5.28;4.72;;;18.70;47.90;;;;;;6171302;23;20135;-81
2021/05/21 03:59:27;;;;;;;5.55;5.05;;;18.70;47.90;;;;;;6171801;23;20142;-80
2021/05/21 04:01:54;;;;;;;5.20;4.70;;;18.70;47.90;;;;;;6197749;23;20139;-80
2021/05/21 04:04:23;;;;;;;6.28;5.25;;;18.70;47.90;;;;;;6147508;23;20146;-83
2021/05/21 04:06:50;;;;;;;6.20;5.22;;;18.70;48.00;;;;;;6172185;23;20590;-81
2021/05/21 04:09:15;;;;;;;5.57;4.95;;;18.70;48.00;;;;;;6172737;23;20178;-81
2021/05/21 04:11:41;;;;;;;5.95;5.13;;;18.60;48.00;;;;;;6172923;23;20131;-82
2021/05/21 04:14:07;;;;;;;5.70;5.13;;;18.70;48.00;;;;;;6198275;23;20465;-80
2021/05/21 04:16:33;;;;;;;6.53;5.32;;;18.60;48.00;;;;;;6198669;23;20134;-80
2021/05/21 04:19:01;;;;;;;5.60;4.72;;;18.60;48.10;;;;;;6123658;23;20139;-80
2021/05/21 04:21:26;;;;;;;6.15;5.00;;;18.60;48.10;;;;;;6148024;23;20135;-81
2021/05/21 04:23:55;;;;;;;6.32;5.03;;;18.60;48.10;;;;;;6147694;23;20131;-80
2021/05/21 04:26:21;;;;;;;5.65;4.72;;;18.60;48.10;;;;;;6173174;23;20595;-81
2021/05/21 04:28:50;;;;;;;5.03;4.53;;;18.60;48.10;;;;;;6171576;23;20162;-80
2021/05/21 04:31:18;;;;;;;5.72;5.10;;;18.60;48.10;;;;;;6147899;23;20242;-80
2021/05/21 04:33:44;;;;;;;5.28;4.78;;;18.60;48.10;;;;;;6146835;23;20158;-81
2021/05/21 04:36:11;;;;;;;5.63;4.50;;;18.60;48.10;;;;;;6122189;23;20478;-80
2021/05/21 04:38:38;;;;;;;5.72;5.05;;;18.70;48.10;;;;;;6121856;23;20147;-80
2021/05/21 04:41:05;;;;;;;5.57;4.63;;;18.60;48.10;;;;;;6146649;23;20189;-80
2021/05/21 04:43:33;;;;;;;5.72;5.13;;;18.60;48.00;;;;;;6123349;23;20218;-81
2021/05/21 04:46:01;;;;;;;5.25;4.75;;;18.70;48.10;;;;;;6146264;23;20139;-80
2021/05/21 04:48:29;;;;;;;7.18;5.28;;;18.60;48.00;;;;;;6146986;23;20174;-80
2021/05/21 04:50:57;;;;;;;5.53;4.53;;;18.60;48.00;;;;;;6171568;23;20216;-80
2021/05/21 04:53:25;;;;;;;5.00;4.50;;;18.60;48.00;;;;;;6172035;23;20276;-80
2021/05/21 04:55:51;;;;;;;5.30;4.80;;;18.70;48.00;;;;;;6171866;23;20205;-80
2021/05/21 04:58:18;;;;;;;5.20;4.55;;;18.60;48.00;;;;;;6146247;23;20174;-81
2021/05/21 05:00:44;;;;;;;5.90;4.68;;;18.70;48.00;;;;;;6170190;23;20143;-82
2021/05/21 05:03:12;;;;;;;4.95;4.45;;;18.70;48.00;;;;;;6171338;23;20138;-81
2021/05/21 05:05:38;;;;;;;4.97;4.40;;;18.70;48.00;;;;;;6145890;23;20135;-80
2021/05/21 05:08:06;;;;;;;4.53;4.13;;;18.70;48.00;;;;;;6122338;23;20474;-82
2021/05/21 05:10:34;;;;;;;4.93;4.28;;;18.70;47.90;;;;;;6171037;23;20167;-80
2021/05/21 05:13:00;;;;;;;5.28;4.60;;;18.70;48.00;;;;;;6147485;23;20139;-81
2021/05/21 05:15:27;;;;;;;4.55;4.00;;;18.70;48.00;;;;;;6173034;23;20143;-81
2021/05/21 05:17:53;;;;;;;4.75;4.25;;;18.70;48.00;;;;;;6173774;23;20154;-80
2021/05/21 05:20:23;;;;;;;5.68;4.40;;;18.70;48.00;;;;;;6199937;23;20131;-80
2021/05/21 05:22:51;;;;;;;4.60;4.20;;;18.70;47.90;;;;;;6149780;23;20145;-80
2021/05/21 05:25:17;;;;;;;5.50;4.60;;;18.70;48.00;;;;;;6149199;23;20135;-80
2021/05/21 05:27:42;;;;;;;5.05;4.55;;;18.70;48.00;;;;;;6125441;23;20220;-80
2021/05/21 05:30:12;;;;;;;5.35;4.60;;;18.70;48.00;;;;;;6149255;23;20177;-80
2021/05/21 05:32:39;;;;;;;4.97;4.20;;;18.70;48.00;;;;;;6172326;23;20135;-82
2021/05/21 05:35:09;;;;;;;4.80;4.30;;;18.70;47.90;;;;;;6172400;23;20618;-80
2021/05/21 05:37:35;;;;;;;5.10;4.22;;;18.70;48.00;;;;;;6173064;23;20154;-81
2021/05/21 05:40:02;;;;;;;4.95;4.45;;;18.70;48.60;;;;;;6198777;23;20139;-80
2021/05/21 05:42:29;;;;;;;4.50;4.00;;;18.70;47.90;;;;;;6172959;23;20197;-79
2021/05/21 05:44:55;;;;;;;4.40;4.00;;;18.70;48.00;;;;;;6149115;23;20131;-79
2021/05/21 05:47:23;;;;;;;5.47;4.68;;;18.70;48.00;;;;;;6148426;23;20127;-80
2021/05/21 05:49:49;;;;;;;5.00;4.40;;;18.70;48.00;;;;;;6149000;23;20174;-81
2021/05/21 05:52:14;;;;;;;5.25;4.75;;;18.70;48.00;;;;;;6149469;23;20157;-81
2021/05/21 05:54:44;;;;;;;4.70;4.20;;;18.70;47.90;;;;;;6124581;23;20150;-80
2021/05/21 05:57:10;;;;;;;4.10;3.70;;;18.80;47.90;;;;;;6149125;23;20139;-81
2021/05/21 05:59:36;;;;;;;5.00;4.50;;;18.80;47.90;;;;;;6174376;23;20134;-79
2021/05/21 06:02:04;;;;;;;4.63;4.15;;;18.80;48.00;;;;;;6149391;23;20149;-81
2021/05/21 06:04:32;;;;;;;4.72;3.95;;;18.80;48.00;;;;;;6148856;23;20216;-80
2021/05/21 06:06:59;;;;;;;5.43;4.47;;;18.80;48.00;;;;;;6125215;23;20198;-80
2021/05/21 06:09:27;;;;;;;4.70;4.00;;;18.70;48.00;;;;;;6148803;23;20614;-79
2021/05/21 06:11:56;;;;;;;5.10;4.15;;;18.80;48.00;;;;;;6174343;23;20123;-79
2021/05/21 06:14:25;;;;;;;4.78;4.28;;;18.80;48.00;;;;;;6148987;23;20162;-79
2021/05/21 06:16:51;;;;;;;5.03;3.97;;;18.80;48.00;;;;;;6149338;23;20149;-79
2021/05/21 06:19:25;;;;;;;4.93;3.97;;;18.80;48.00;;;;;;6121945;23;20143;-80
2021/05/21 06:21:52;;;;;;;4.57;4.18;;;18.80;48.00;;;;;;6146830;23;20139;-80
2021/05/21 06:24:18;;;;;;;6.32;4.82;;;18.80;48.60;;;;;;6148744;23;20131;-82
2021/05/21 06:29:29;;;;;;;4.82;4.20;;;18.90;48.10;;;;;;6172695;23;20267;-81
2021/05/21 06:31:55;;;;;;;4.35;3.95;;;18.90;47.90;;;;;;6135519;23;20159;-82
2021/05/21 06:34:22;;;;;;;4.03;3.63;;;18.80;48.70;;;;;;6186606;23;20135;-80
2021/05/21 06:36:48;;;;;;;5.93;4.50;;;18.80;48.00;;;;;;6160068;23;20127;-82
2021/05/21 06:39:13;;;;;;;4.28;3.88;;;18.80;48.00;;;;;;6135604;23;20225;-80
2021/05/21 06:41:39;;;;;;;4.18;3.78;;;18.80;48.00;;;;;;6136606;23;20708;-79
2021/05/21 06:44:05;;;;;;;4.30;3.90;;;18.80;48.10;;;;;;6186020;23;20135;-80
2021/05/21 06:46:30;;;;;;;3.97;3.63;;;18.80;48.10;;;;;;6159882;23;20135;-80
2021/05/21 06:48:57;;;;;;;4.88;3.95;;;18.80;48.00;;;;;;6159617;23;20143;-84
2021/05/21 06:51:23;;;;;;;4.78;4.28;;;18.80;48.10;;;;;;6187268;23;20135;-82
2021/05/21 06:53:49;;;;;;;4.40;3.83;;;18.80;48.00;;;;;;6189806;23;20138;-79
2021/05/21 06:56:17;;;;;;;4.40;4.00;;;18.80;48.00;;;;;;6143080;23;20165;-81
2021/05/21 06:58:44;;;;;;;4.35;3.67;;;18.80;48.00;;;;;;6168992;23;20128;-78
2021/05/21 07:01:11;;;;;;;3.92;3.53;;;18.80;48.20;;;;;;6191108;23;20597;-80
2021/05/21 07:03:36;;;;;;;4.38;3.83;;;18.80;48.30;;;;;;6160374;23;20190;-85
2021/05/21 07:06:03;;;;;;;4.32;3.72;;;18.80;48.20;;;;;;6162098;23;20135;-80
2021/05/21 07:08:29;;;;;;;4.38;3.90;;;18.80;48.00;;;;;;6134781;23;20139;-83
2021/05/21 07:10:55;;;;;;;5.65;3.85;;;18.90;48.20;;;;;;6134928;23;20274;-82
2021/05/21 07:13:21;;;;;;;4.68;3.90;;;18.90;48.10;;;;;;6159501;23;20139;-84
2021/05/21 07:15:47;;;;;;;5.28;4.18;;;18.90;48.10;;;;;;6185760;23;20181;-84
2021/05/21 07:18:13;;;;;;;4.32;3.75;;;18.90;48.10;;;;;;6135728;23;20166;-82
2021/05/21 07:20:42;;;;;;;4.35;3.90;;;18.90;48.00;;;;;;6135285;23;20522;-82
2021/05/21 07:23:07;;;;;;;4.20;3.78;;;19.00;48.10;;;;;;6138475;23;20631;-79
2021/05/21 07:25:36;;;;;;;4.38;3.83;;;19.00;47.90;;;;;;6113788;23;20139;-81
2021/05/21 07:28:02;;;;;;;4.22;3.80;;;18.90;47.90;;;;;;6138546;23;20240;-85
2021/05/21 07:30:30;;;;;;;4.30;3.80;;;19.00;47.90;;;;;;6139591;23;20181;-83
2021/05/21 07:32:55;;;;;;;4.35;3.85;;;18.90;47.90;;;;;;6142516;23;20158;-80
2021/05/21 07:35:21;;;;;;;5.47;3.90;;;18.90;48.00;;;;;;6141355;23;20526;-84
2021/05/21 07:37:52;;;;;;;4.85;3.88;;;19.00;48.10;;;;;;6141279;23;20146;-83
2021/05/21 07:40:18;;;;;;;4.13;3.63;;;19.00;47.90;;;;;;6166660;23;20131;-82
2021/05/21 07:42:47;;;;;;;5.85;3.85;;;19.00;48.00;;;;;;6116054;23;20157;-82
2021/05/21 07:45:22;;;;;;;5.13;4.30;;;19.00;48.10;;;;;;6141061;23;20212;-82
2021/05/21 07:47:48;;;;;;;4.22;3.78;;;19.00;48.10;;;;;;6165563;23;20470;-82
2021/05/21 07:50:14;;;;;;;6.80;3.88;;;19.00;48.00;;;;;;6189943;23;20202;-84
2021/05/21 07:52:39;;;;;;;4.00;3.60;;;19.00;48.20;;;;;;6169188;23;20135;-80
2021/05/21 07:55:06;;;;;;;4.07;3.67;;;19.00;48.10;;;;;;6139574;23;20131;-82
2021/05/21 07:57:32;;;;;;;5.18;3.90;;;19.00;48.10;;;;;;6187488;23;20135;-79
2021/05/21 07:59:58;;;;;;;4.55;3.88;;;19.00;47.90;;;;;;6136408;23;20160;-82
2021/05/21 08:02:24;;;;;;;4.32;3.50;;;19.00;47.90;;;;;;6112031;23;20507;-81
2021/05/21 08:04:50;;;;;;;3.55;3.20;;;19.00;48.00;;;;;;6161308;23;20238;-79
2021/05/21 08:07:15;;;;;;;4.80;3.80;;;19.00;48.20;;;;;;6187970;23;20138;-79
2021/05/21 08:09:45;;;;;;;4.22;3.72;;;19.00;48.00;;;;;;6136316;23;20762;-82
2021/05/21 08:12:10;;;;;;;3.85;3.45;;;19.00;48.10;;;;;;6113436;23;20135;-83
2021/05/21 08:14:36;;;;;;;4.20;3.80;;;19.00;48.10;;;;;;6135759;23;20142;-82
2021/05/21 08:17:02;;;;;;;4.85;3.42;;;19.10;48.10;;;;;;6187079;23;20131;-81
2021/05/21 08:19:28;;;;;;;3.80;3.42;;;19.10;48.10;;;;;;6186893;23;20643;-80
2021/05/21 08:21:53;;;;;;;4.65;3.80;;;19.20;47.90;;;;;;6187419;23;20161;-81
2021/05/21 08:24:20;;;;;;;4.40;3.90;;;19.10;48.00;;;;;;6188533;23;20131;-82
2021/05/21 08:26:46;;;;;;;4.20;3.80;;;19.20;47.90;;;;;;6161372;23;20170;-78
2021/05/21 08:29:12;;;;;;;4.25;3.85;;;19.20;47.90;;;;;;6186640;23;20158;-80
2021/05/21 08:31:38;;;;;;;5.00;3.70;;;19.20;48.00;;;;;;6190198;23;20177;-79
2021/05/21 08:34:04;;;;;;;5.30;3.75;;;19.20;48.00;;;;;;6192554;23;20139;-80
2021/05/21 08:36:29;;;;;;;4.00;3.60;;;19.20;47.80;;;;;;6163920;23;20131;-80
2021/05/21 08:38:55;;;;;;;4.03;3.63;;;19.10;48.10;;;;;;6189076;23;20138;-78
2021/05/21 08:41:28;;;;;;;4.97;3.40;;;19.10;48.20;;;;;;6188348;23;20200;-82
2021/05/21 08:43:54;;;;;;;5.57;3.80;;;19.20;48.40;;;;;;6160924;23;20194;-81
2021/05/21 08:46:21;;;;;;;5.88;3.75;;;19.10;48.50;;;;;;6161186;23;20151;-80
2021/05/21 08:48:47;;;;;;;4.07;3.70;;;19.10;48.90;;;;;;6189290;23;20166;-77
2021/05/21 08:51:16;;;;;;;5.22;3.70;;;19.20;48.90;;;;;;6189871;23;20162;-80
2021/05/21 08:53:42;;;;;;;4.45;3.65;;;19.20;48.70;;;;;;6190807;23;20197;-79
2021/05/21 08:56:08;;;;;;;3.90;3.50;;;19.20;48.80;;;;;;6190931;23;20135;-78
2021/05/21 08:58:34;;;;;;;5.13;3.50;;;19.20;49.00;;;;;;6166490;23;20515;-79
2021/05/21 09:01:05;;;;;;;4.03;3.60;;;19.20;48.80;;;;;;6161321;23;20135;-80
2021/05/21 09:03:33;;;;;;;3.83;3.40;;;19.20;48.60;;;;;;6159739;23;20135;-81
2021/05/21 09:06:20;;;;;;;4.05;3.65;;;19.30;48.70;;;;;;6186717;23;20124;-82
2021/05/21 09:08:47;;;;;;;5.18;3.47;;;19.30;48.90;;;;;;6186566;23;20146;-80
2021/05/21 09:11:30;;;;;;;4.43;3.38;;;19.30;48.70;;;;;;6188235;23;20610;-80
2021/05/21 09:14:04;;;;;;;3.70;3.40;;;19.40;48.60;;;;;;6192552;23;20162;-82
2021/05/21 09:16:32;;;;;;;4.25;3.47;;;19.30;48.80;;;;;;6164853;23;20131;-83
2021/05/21 09:19:07;;;;;;;4.32;3.47;;;19.20;48.90;;;;;;6193080;23;20138;-80
2021/05/21 09:21:48;;;;;;;4.22;3.80;;;19.30;49.30;;;;;;6192289;23;20586;-82
2021/05/21 09:24:14;;;;;;;3.92;3.53;;;19.30;49.50;;;;;;6191596;23;20176;-80
2021/05/21 09:26:41;;;;;;;4.32;3.70;;;19.30;49.30;;;;;;6138844;23;20138;-80
2021/05/21 09:29:08;;;;;;;3.72;3.30;;;19.30;49.40;;;;;;6138909;23;20261;-81
2021/05/21 09:31:47;;;;;;;4.10;3.60;;;19.30;49.60;;;;;;6139877;23;20153;-80
2021/05/21 09:34:14;;;;;;;3.70;3.20;;;19.30;49.80;;;;;;6164484;23;20502;-81
2021/05/21 09:36:41;;;;;;;4.00;3.60;;;19.30;49.70;;;;;;6163973;23;20150;-84
2021/05/21 09:39:11;;;;;;;3.35;3.00;;;19.20;49.90;;;;;;6114796;23;20510;-83
2021/05/21 09:41:47;;;;;;;3.92;3.45;;;19.20;49.90;;;;;;6114916;23;20236;-81
2021/05/21 09:44:14;;;;;;;4.28;3.70;;;19.30;50.10;;;;;;6140580;23;20133;-82
2021/05/21 09:46:41;;;;;;;5.13;3.60;;;19.30;49.90;;;;;;6139092;23;20149;-80
2021/05/21 09:49:35;;;;;;;4.03;3.63;;;19.40;49.80;;;;;;6118210;23;20206;-84
2021/05/21 09:52:14;;;;;;;5.43;3.38;;;19.30;49.90;;;;;;6167455;23;20146;-82
2021/05/21 09:54:55;;;;;;;5.50;3.60;;;19.30;50.00;;;;;;6166585;23;20130;-80
2021/05/21 09:57:34;;;;;;;5.88;3.70;;;19.30;50.00;;;;;;6164182;23;20151;-81
2021/05/21 10:00:00;;;;;;;4.47;3.30;;;19.30;49.90;;;;;;6164019;23;20150;-80
2021/05/21 10:02:27;;;;;;;4.10;3.70;;;19.20;50.00;;;;;;6115400;23;20191;-80
2021/05/21 10:04:55;;;;;;;7.15;3.75;;;19.30;50.00;;;;;;6162380;23;20583;-81
2021/05/21 10:07:22;;;;;;;5.18;3.50;;;19.30;50.00;;;;;;6163286;23;20270;-82
2021/05/21 10:09:56;;;;;;;7.80;3.40;;;19.30;50.00;;;;;;6137950;23;20562;-82
2021/05/21 10:12:21;;;;;;;4.97;3.40;;;19.20;50.00;;;;;;6166497;23;20222;-80
2021/05/21 10:14:50;;;;;;;6.13;4.18;;;19.20;50.00;;;;;;6166693;23;20135;-83
2021/05/21 10:17:24;;;;;;;4.95;3.40;;;19.30;49.80;;;;;;6166005;23;20154;-81
2021/05/21 10:19:53;;;;;;;6.43;3.65;;;19.30;49.90;;;;;;6140373;23;20174;-82
2021/05/21 10:22:38;;;;;;;5.05;3.38;;;19.30;50.00;;;;;;6167665;23;20131;-82
2021/05/21 10:25:08;;;;;;;6.07;3.50;;;19.30;50.00;;;;;;6143180;23;20193;-79
2021/05/21 10:27:35;;;;;;;6.05;4.00;;;19.40;50.10;;;;;;6118165;23;20142;-81
2021/05/21 10:30:05;;;;;;;5.18;3.60;;;19.40;50.20;;;;;;6142919;23;20170;-82
2021/05/21 10:32:32;;;;;;;7.63;3.75;;;19.40;50.50;;;;;;6117531;23;20234;-80
2021/05/21 10:34:59;;;;;;;10.68;3.88;;;19.40;50.40;;;;;;6163121;23;20135;-83
2021/05/21 10:37:31;;;;;;;5.05;3.60;;;19.40;50.40;;;;;;6141811;23;20135;-82
2021/05/21 10:40:05;;;;;;;6.55;3.65;;;19.40;50.70;;;;;;6190627;23;20146;-80
2021/05/21 10:42:35;;;;;;;4.22;3.63;;;19.40;50.60;;;;;;6192228;23;20190;-82
2021/05/21 10:45:18;;;;;;;4.10;3.50;;;19.30;50.30;;;;;;6142055;23;20131;-80
2021/05/21 10:47:45;;;;;;;5.43;3.45;;;19.30;50.40;;;;;;6142552;23;20141;-78
2021/05/21 10:50:17;;;;;;;5.38;3.75;;;19.30;50.30;;;;;;6190049;23;20171;-82
2021/05/21 10:52:53;;;;;;;5.70;3.13;;;19.20;50.60;;;;;;6191651;23;20131;-77
2021/05/21 10:55:36;;;;;;;5.13;3.15;;;19.30;50.60;;;;;;6165745;23;20146;-80
2021/05/21 10:58:02;;;;;;;4.13;3.20;;;19.30;50.60;;;;;;6140500;23;20515;-79
2021/05/21 11:00:29;;;;;;;7.43;3.58;;;19.30;50.60;;;;;;6186759;23;20590;-78
2021/05/21 11:02:55;;;;;;;6.00;3.50;;;19.20;50.60;;;;;;6166964;23;20583;-77
2021/05/21 11:05:27;;;;;;;6.45;3.47;;;19.20;50.70;;;;;;6192936;23;20135;-78
2021/05/21 11:08:03;;;;;;;9.60;3.78;;;19.20;50.70;;;;;;6165428;23;20187;-77
2021/05/21 11:10:32;;;;;;;9.23;3.83;;;19.20;50.60;;;;;;6143216;23;20201;-78
2021/05/21 11:13:19;;;;;;;9.85;3.50;;;19.20;50.80;;;;;;6190401;23;20222;-79
2021/05/21 11:15:53;;;;;;;10.60;3.47;;;19.20;50.70;;;;;;6138019;23;20139;-80
2021/05/21 11:18:19;;;;;;;10.85;3.92;;;19.20;50.70;;;;;;6190642;23;20135;-79
2021/05/21 11:20:56;;;;;;;14.32;3.95;;;19.30;50.80;;;;;;6164490;23;20521;-79
2021/05/21 11:23:41;;;;;;;13.88;3.58;;;19.30;50.70;;;;;;6163470;23;20134;-78
2021/05/21 11:26:13;;;;;;;13.38;3.83;;;19.30;50.70;;;;;;6193241;23;20249;-78
2021/05/21 11:28:42;;;;;;;14.48;3.80;;;19.30;50.60;;;;;;6166888;23;20146;-78
2021/05/21 11:31:18;;;;;;;13.23;4.18;;;19.40;50.60;;;;;;6161558;23;20502;-79
2021/05/21 11:33:45;;;;;;;18.55;3.95;;;19.40;50.70;;;;;;6163536;23;20147;-79
2021/05/21 11:36:11;;;;;;;9.07;3.67;;;19.40;50.60;;;;;;6114913;23;20593;-78
2021/05/21 11:38:37;;;;;;;14.98;4.10;;;19.40;50.70;;;;;;6140955;23;20222;-79
2021/05/21 11:41:04;;;;;;;13.10;3.50;;;19.40;50.80;;;;;;6164234;23;20646;-81
2021/05/21 11:43:29;;;;;;;15.30;4.07;;;19.40;50.70;;;;;;6164361;23;20150;-82
2021/05/21 11:45:58;;;;;;;7.60;3.78;;;19.40;50.60;;;;;;6163259;23;20249;-81
2021/05/21 11:48:37;;;;;;;14.52;3.65;;;19.40;50.60;;;;;;6163768;23;20486;-82
2021/05/21 11:51:08;;;;;;;17.77;3.92;;;19.40;50.50;;;;;;6114542;23;20625;-80
2021/05/21 11:53:45;;;;;;;10.75;4.13;;;19.40;50.40;;;;;;6189427;23;20131;-81
2021/05/21 11:56:12;;;;;;;7.55;3.53;;;19.50;50.20;;;;;;6161405;23;20182;-81
2021/05/21 11:58:39;;;;;;;13.02;4.03;;;19.50;50.10;;;;;;6187002;23;20448;-81
2021/05/21 12:01:05;;;;;;;14.00;4.00;;;19.40;50.40;;;;;;6187473;23;20139;-80
2021/05/21 12:03:36;;;;;;;12.25;3.58;;;19.40;50.40;;;;;;6187137;23;20130;-80
2021/05/21 12:06:03;;;;;;;7.57;3.58;;;19.40;49.90;;;;;;6161021;23;20277;-80
2021/05/21 12:08:28;;;;;;;9.27;3.50;;;19.40;50.20;;;;;;6160482;23;20481;-80
2021/05/21 12:10:56;;;;;;;14.52;3.80;;;19.40;50.00;;;;;;6136631;23;20646;-80
2021/05/21 12:13:22;;;;;;;12.70;3.53;;;19.40;50.50;;;;;;6162066;23;20440;-80
2021/05/21 12:15:50;;;;;;;9.10;3.40;;;19.40;50.10;;;;;;6161237;23;20139;-79
2021/05/21 12:18:17;;;;;;;12.70;3.72;;;19.40;49.80;;;;;;6187735;23;20178;-79
2021/05/21 12:20:51;;;;;;;11.55;3.95;;;19.40;49.80;;;;;;6188549;23;20142;-79
2021/05/21 12:23:18;;;;;;;11.63;3.85;;;19.40;49.60;;;;;;6187014;23;20629;-80
2021/05/21 12:25:44;;;;;;;8.10;3.28;;;19.40;49.60;;;;;;6192866;23;20627;-79
2021/05/21 12:28:10;;;;;;;8.02;3.03;;;19.50;49.50;;;;;;6165015;23;20131;-81
2021/05/21 12:30:45;;;;;;;13.60;3.45;;;19.50;49.40;;;;;;6141208;23;20159;-79
2021/05/21 12:33:12;;;;;;;7.65;3.28;;;19.40;49.50;;;;;;6135994;23;20213;-80
2021/05/21 12:35:40;;;;;;;10.43;3.88;;;19.50;49.50;;;;;;6193442;23;20124;-78
2021/05/21 12:38:09;;;;;;;12.55;3.50;;;19.50;49.40;;;;;;6169350;23;20135;-79
2021/05/21 12:40:40;;;;;;;10.75;2.75;;;19.40;49.40;;;;;;6170737;23;20186;-78
2021/05/21 12:43:09;;;;;;;8.63;3.17;;;19.50;49.20;;;;;;6171748;23;20175;-82
2021/05/21 12:45:36;;;;;;;11.57;2.90;;;19.50;49.40;;;;;;6117916;23;20150;-80
2021/05/21 12:48:04;;;;;;;7.03;3.20;;;19.50;49.20;;;;;;6189626;23;20132;-78
2021/05/21 12:50:33;;;;;;;9.23;3.10;;;19.50;49.10;;;;;;6189505;23;20177;-81
2021/05/21 12:53:04;;;;;;;10.60;3.40;;;19.50;49.10;;;;;;6188096;23;20139;-82
2021/05/21 12:55:29;;;;;;;6.38;3.22;;;19.50;49.00;;;;;;6188467;23;20126;-80